KRNO/RNO METAR and TAF weather

Enter ICAO airport designator
Station Type Date Time Source
KRNO METAR 2020/01/18 23:55 UTC NOAA

KRNO 182355Z 00000KT 10SM FEW130 SCT190 BKN230 08/M08 A3034 RMK AO2 SLP272 T00831078 10089 20011 53002


Station Type Date Time Source
KRNO Decoded METAR 2020/01/18 23:55 UTC NOAA

RENO/TAHOE INTERNATIONAL AIRPORT, NV, United States (KRNO) 39-29N 119-46W 1342M
Jan 18, 2020 - 06:55 PM EST / 2020.01.18 2355 UTC
Wind: Calm:0
Visibility: 10 mile(s):0
Sky conditions: mostly cloudy
Temperature: 46.9 F (8.3 C)
Dew Point: 18.0 F (-7.8 C)
Relative Humidity: 31%
Pressure (altimeter): 30.34 in. Hg (1027 hPa)
Pressure tendency: 0.01 inches (0.2 hPa) higher than three hours ago
ob: KRNO 182355Z 00000KT 10SM FEW130 SCT190 BKN230 08/M08 A3034 RMK AO2 SLP272 T00831078 10089 20011 53002
cycle: 0

Station Type Date Time Source
KRNO TAF 2020/01/18 18:22 UTC NOAA

TAF KRNO 181720Z 1818/1918 VRB03KT P6SM SCT140 BKN180

Example: see airport list